TimeEDT,TemperatureF,Dew PointF,Humidity,Sea Level PressureIn,VisibilityMPH,Wind Direction,Wind SpeedMPH,Gust SpeedMPH,PrecipitationIn,Events,Conditions,WindDirDegrees,DateUTC
12:53 AM,43.0,39.0,86,30.08,10.0,Calm,Calm,-,N/A,,Clear,0,2011-10-22 04:53:00
1:53 AM,42.1,39.0,89,30.09,10.0,West,4.6,-,N/A,,Clear,270,2011-10-22 05:53:00
2:53 AM,42.1,39.0,89,30.09,10.0,WSW,3.5,-,N/A,,Clear,250,2011-10-22 06:53:00
3:53 AM,43.0,39.0,86,30.08,10.0,West,3.5,-,N/A,,Clear,260,2011-10-22 07:53:00
4:53 AM,39.9,37.9,93,30.08,8.0,Calm,Calm,-,N/A,,Clear,0,2011-10-22 08:53:00
5:53 AM,39.9,37.9,93,30.10,8.0,Calm,Calm,-,N/A,,Clear,0,2011-10-22 09:53:00
6:53 AM,37.9,37.0,97,30.11,7.0,Calm,Calm,-,N/A,,Clear,0,2011-10-22 10:53:00
7:53 AM,37.9,37.9,100,30.12,3.0,Calm,Calm,-,N/A,,Clear,0,2011-10-22 11:53:00
8:53 AM,45.0,42.1,90,30.13,6.0,Calm,Calm,-,N/A,,Clear,0,2011-10-22 12:53:00
9:53 AM,48.9,43.0,80,30.13,10.0,West,4.6,-,N/A,,Clear,280,2011-10-22 13:53:00
10:53 AM,54.0,39.0,57,30.13,10.0,NW,11.5,-,N/A,,Partly Cloudy,310,2011-10-22 14:53:00
11:53 AM,53.1,39.0,59,30.13,10.0,WNW,10.4,-,N/A,,Overcast,300,2011-10-22 15:53:00
12:53 PM,53.1,37.9,57,30.12,10.0,NW,10.4,-,N/A,,Overcast,310,2011-10-22 16:53:00
1:53 PM,54.0,39.0,57,30.10,10.0,WNW,5.8,-,N/A,,Overcast,300,2011-10-22 17:53:00
2:53 PM,54.0,39.9,59,30.09,10.0,NNW,5.8,-,N/A,,Overcast,330,2011-10-22 18:53:00
3:53 PM,53.1,39.9,61,30.09,10.0,NNW,5.8,-,N/A,,Overcast,330,2011-10-22 19:53:00
4:53 PM,53.1,41.0,64,30.10,10.0,NW,4.6,-,N/A,,Overcast,320,2011-10-22 20:53:00
5:53 PM,52.0,41.0,66,30.10,10.0,West,3.5,-,N/A,,Overcast,280,2011-10-22 21:53:00
6:53 PM,53.1,39.0,59,30.11,10.0,Calm,Calm,-,N/A,,Overcast,0,2011-10-22 22:53:00
7:53 PM,48.0,41.0,77,30.11,8.0,Calm,Calm,-,N/A,,Mostly Cloudy,0,2011-10-22 23:53:00
8:53 PM,48.0,41.0,77,30.12,8.0,Calm,Calm,-,N/A,,Overcast,0,2011-10-23 00:53:00
9:53 PM,48.0,42.1,80,30.13,8.0,Calm,Calm,-,N/A,,Overcast,0,2011-10-23 01:53:00
11:53 PM,43.0,39.9,89,30.13,5.0,Calm,Calm,-,N/A,,Clear,0,2011-10-23 03:53:00